Time;durP1;ratioP1;P1;durP2;ratioP2;P2;SDS_P1;SDS_P2;PMS_P1;PMS_P2;Temp;Humidity;BMP_temperature;BMP_pressure;BME280_temperature;BME280_humidity;BME280_pressure;Samples;Min_cycle;Max_cycle;Signal;HPM_P1;HPM_P2
2023/01/02 00:01:57;;;;;;;;;;;;;;;19.91;54.03;95200.53;5000902;28;7566;-69
2023/01/02 00:04:24;;;;;;;;;;;;;;;19.88;54.23;95190.31;5006853;28;7546;-69
2023/01/02 00:06:51;;;;;;;;;;;;;;;19.83;54.08;95188.06;5006126;28;7562;-70
2023/01/02 00:09:18;;;;;;;;;;;;;;;19.80;53.86;95188.91;5002605;28;8810;-69
2023/01/02 00:11:45;;;;;;;;;;;;;;;19.72;54.13;95174.47;5000788;28;8644;-70
2023/01/02 00:14:12;;;;;;;;;;;;;;;19.75;54.18;95172.84;4998700;28;8893;-69
2023/01/02 00:16:38;;;;;;;;;;;;;;;19.71;54.04;95177.66;5004201;28;7535;-70
2023/01/02 00:19:07;;;;;;;;;;;;;;;19.68;54.10;95164.72;5003242;28;7642;-70
2023/01/02 00:21:35;;;;;;;;;;;;;;;19.68;54.22;95167.47;5002562;28;7596;-70
2023/01/02 00:24:02;;;;;;;;;;;;;;;19.68;54.17;95173.00;5006362;28;7553;-70
2023/01/02 00:26:29;;;;;;;;;;;;;;;19.65;53.93;95169.13;4996358;28;7563;-70
2023/01/02 00:28:55;;;;;;;;;;;;;;;19.63;53.89;95157.72;5001726;28;7793;-70
2023/01/02 00:31:22;;;;;;;;;;;;;;;19.74;53.90;95160.22;5005667;28;7562;-70
2023/01/02 00:33:49;;;;;;;;;;;;;;;19.76;53.49;95155.81;5001439;28;9014;-70
2023/01/02 00:36:16;;;;;;;;;;;;;;;19.81;53.26;95154.50;5000703;28;8023;-70
2023/01/02 00:38:42;;;;;;;;;;;;;;;19.78;53.32;95147.09;5002287;28;9198;-69
2023/01/02 00:41:09;;;;;;;;;;;;;;;19.74;53.48;95152.72;5004090;28;7909;-70
2023/01/02 00:43:36;;;;;;;;;;;;;;;19.67;53.57;95154.84;5000953;28;7558;-70
2023/01/02 00:46:03;;;;;;;;;;;;;;;19.73;53.32;95155.88;5001202;28;7566;-70
2023/01/02 00:48:38;;;;;;;;;;;;;;;19.70;53.25;95160.31;5001914;28;8332;-70
2023/01/02 00:51:05;;;;;;;;;;;;;;;19.69;53.41;95155.97;4986372;28;7642;-70
2023/01/02 00:53:33;;;;;;;;;;;;;;;19.66;53.37;95159.59;5002959;28;7527;-70
2023/01/02 00:56:00;;;;;;;;;;;;;;;19.67;53.22;95155.63;5002956;28;8004;-70
2023/01/02 00:58:27;;;;;;;;;;;;;;;19.65;53.20;95157.28;5003766;28;7601;-70
2023/01/02 01:00:53;;;;;;;;;;;;;;;19.62;53.32;95154.16;4999590;28;8019;-70
2023/01/02 01:03:20;;;;;;;;;;;;;;;19.61;53.28;95149.06;5001385;28;7543;-70
2023/01/02 01:05:47;;;;;;;;;;;;;;;19.60;53.31;95137.22;5004500;28;7589;-70
2023/01/02 01:08:13;;;;;;;;;;;;;;;19.65;53.23;95137.91;4999999;28;7527;-70
2023/01/02 01:10:40;;;;;;;;;;;;;;;19.65;53.19;95130.41;5002228;28;7689;-70
2023/01/02 01:13:07;;;;;;;;;;;;;;;19.61;53.22;95124.97;5003989;28;7551;-70
2023/01/02 01:15:34;;;;;;;;;;;;;;;19.62;53.11;95122.97;5000736;28;7546;-70
2023/01/02 01:18:01;;;;;;;;;;;;;;;19.64;53.07;95120.56;5003602;28;7541;-70
2023/01/02 01:20:28;;;;;;;;;;;;;;;19.67;52.96;95118.91;4999468;28;7589;-70
2023/01/02 01:22:55;;;;;;;;;;;;;;;19.65;53.17;95097.22;5002417;28;7531;-69
2023/01/02 01:25:21;;;;;;;;;;;;;;;19.69;52.96;95094.38;5003290;28;7539;-69
2023/01/02 01:27:51;;;;;;;;;;;;;;;19.69;52.65;95083.31;5001129;28;7637;-69
2023/01/02 01:30:18;;;;;;;;;;;;;;;19.69;52.80;95092.38;5002957;28;8041;-70
2023/01/02 01:32:45;;;;;;;;;;;;;;;19.67;53.00;95097.53;5002427;28;7543;-70
2023/01/02 01:35:12;;;;;;;;;;;;;;;19.69;52.79;95092.38;4998402;28;7535;-70
2023/01/02 01:37:38;;;;;;;;;;;;;;;19.69;52.55;95100.66;5001766;28;7554;-70
2023/01/02 01:40:06;;;;;;;;;;;;;;;19.70;52.47;95107.75;5004432;28;7539;-69
2023/01/02 01:42:33;;;;;;;;;;;;;;;19.66;52.75;95111.81;4999420;28;7559;-71
2023/01/02 01:45:00;;;;;;;;;;;;;;;19.66;52.71;95112.56;5001903;28;7539;-69
2023/01/02 01:47:38;;;;;;;;;;;;;;;19.69;52.27;95116.50;5000627;28;7546;-70
2023/01/02 01:50:11;;;;;;;;;;;;;;;19.67;52.19;95121.66;4999297;28;7550;-70
2023/01/02 01:52:40;;;;;;;;;;;;;;;19.67;52.20;95119.66;5000010;28;7626;-70
2023/01/02 01:55:16;;;;;;;;;;;;;;;19.66;52.24;95120.09;5004410;28;7541;-70
2023/01/02 01:57:48;;;;;;;;;;;;;;;19.65;52.46;95116.56;5002316;28;7538;-70
2023/01/02 02:00:14;;;;;;;;;;;;;;;19.67;52.40;95122.44;5002814;28;7553;-70
2023/01/02 02:02:45;;;;;;;;;;;;;;;19.69;52.37;95120.03;4998471;28;7549;-70
2023/01/02 02:05:14;;;;;;;;;;;;;;;19.67;52.56;95124.44;5003289;28;7792;-70
2023/01/02 02:07:45;;;;;;;;;;;;;;;19.70;52.37;95121.59;5001852;28;7539;-69
2023/01/02 02:10:11;;;;;;;;;;;;;;;19.70;52.44;95118.06;5000334;28;7555;-70
2023/01/02 02:12:38;;;;;;;;;;;;;;;19.68;52.32;95117.69;4996713;28;7547;-69
2023/01/02 02:15:06;;;;;;;;;;;;;;;19.67;52.46;95121.66;4997500;28;7547;-70
2023/01/02 02:17:41;;;;;;;;;;;;;;;19.67;52.52;95122.44;5001488;28;7547;-70
2023/01/02 02:20:12;;;;;;;;;;;;;;;19.73;52.28;95142.06;5002363;28;7738;-69
2023/01/02 02:22:44;;;;;;;;;;;;;;;19.72;52.18;95146.03;4996480;28;7870;-70
2023/01/02 02:25:30;;;;;;;;;;;;;;;19.71;52.27;95136.19;5003913;28;7701;-71
2023/01/02 02:28:03;;;;;;;;;;;;;;;19.71;52.34;95130.66;4996526;28;7883;-70
2023/01/02 02:30:59;;;;;;;;;;;;;;;19.72;52.28;95138.53;4999869;28;7535;-70
2023/01/02 02:33:48;;;;;;;;;;;;;;;19.71;52.16;95131.44;5002445;28;7989;-70
2023/01/02 02:36:18;;;;;;;;;;;;;;;19.70;52.15;95127.13;4998993;28;7557;-70
2023/01/02 02:38:46;;;;;;;;;;;;;;;19.69;52.15;95127.56;4993717;28;7582;-70
2023/01/02 02:41:19;;;;;;;;;;;;;;;19.71;52.20;95125.91;5000470;28;7790;-70
2023/01/02 02:44:07;;;;;;;;;;;;;;;19.72;52.10;95129.44;5000441;28;7713;-70
2023/01/02 02:46:36;;;;;;;;;;;;;;;19.72;52.07;95126.66;5001645;28;7566;-70
2023/01/02 02:49:12;;;;;;;;;;;;;;;19.73;51.98;95111.63;4995862;28;7523;-70
2023/01/02 02:51:43;;;;;;;;;;;;;;;19.71;51.99;95109.31;4999294;28;8008;-70
2023/01/02 02:54:33;;;;;;;;;;;;;;;19.72;52.02;95104.53;5000047;28;7584;-70
2023/01/02 02:57:00;;;;;;;;;;;;;;;19.76;51.80;95096.94;5005672;28;7566;-70
2023/01/02 02:59:28;;;;;;;;;;;;;;;19.72;51.96;95096.25;4999270;28;7547;-70
2023/01/02 03:01:54;;;;;;;;;;;;;;;19.72;51.79;95099.00;4995646;28;7788;-70
2023/01/02 03:04:22;;;;;;;;;;;;;;;19.72;51.84;95108.09;5002115;28;7570;-69
2023/01/02 03:06:51;;;;;;;;;;;;;;;19.71;51.87;95103.78;5001183;28;7527;-70
2023/01/02 03:09:42;;;;;;;;;;;;;;;19.70;51.95;95107.75;4996050;28;7558;-70
2023/01/02 03:12:09;;;;;;;;;;;;;;;19.72;51.90;95104.53;4997492;28;7546;-70
2023/01/02 03:14:35;;;;;;;;;;;;;;;19.71;51.95;95103.78;5000289;28;7828;-69
2023/01/02 03:17:10;;;;;;;;;;;;;;;19.71;51.96;95102.97;5000260;28;7546;-70
2023/01/02 03:19:41;;;;;;;;;;;;;;;19.71;51.94;95102.97;5004227;28;7565;-70
2023/01/02 03:22:12;;;;;;;;;;;;;;;19.69;52.02;95106.19;5004952;28;7551;-70
2023/01/02 03:24:41;;;;;;;;;;;;;;;19.69;52.11;95103.44;5005993;28;8129;-70
2023/01/02 03:27:09;;;;;;;;;;;;;;;19.70;52.24;95104.22;5006542;28;7731;-70
2023/01/02 03:29:38;;;;;;;;;;;;;;;19.68;52.13;95110.16;5003330;28;7868;-70
2023/01/02 03:32:08;;;;;;;;;;;;;;;19.70;52.08;95109.75;5006452;28;7543;-70
2023/01/02 03:34:37;;;;;;;;;;;;;;;19.70;52.23;95115.28;5003672;28;7539;-71
2023/01/02 03:37:07;;;;;;;;;;;;;;;19.70;52.32;95112.53;5007068;28;7527;-70
2023/01/02 03:39:38;;;;;;;;;;;;;;;19.70;52.29;95116.06;5008382;28;7618;-70
2023/01/02 03:42:08;;;;;;;;;;;;;;;19.70;52.12;95118.06;5006355;28;7633;-70
2023/01/02 03:44:56;;;;;;;;;;;;;;;19.71;52.28;95130.66;5008421;28;7684;-70
2023/01/02 03:47:28;;;;;;;;;;;;;;;19.71;52.25;95125.91;5008467;28;7587;-70
2023/01/02 03:49:57;;;;;;;;;;;;;;;19.71;52.09;95130.66;5006196;28;7563;-70
2023/01/02 03:52:24;;;;;;;;;;;;;;;19.68;52.33;95132.28;5009053;28;7535;-70
2023/01/02 03:54:52;;;;;;;;;;;;;;;19.70;52.28;95135.41;5005306;28;7539;-70
2023/01/02 03:57:31;;;;;;;;;;;;;;;19.70;52.25;95120.81;5005645;28;8004;-71
2023/01/02 04:00:05;;;;;;;;;;;;;;;19.66;52.28;95118.09;5002453;28;7552;-70
2023/01/02 04:02:43;;;;;;;;;;;;;;;19.68;52.34;95112.16;5006973;28;7929;-71
2023/01/02 04:05:10;;;;;;;;;;;;;;;19.67;52.19;95108.59;5007187;28;7788;-70
2023/01/02 04:07:49;;;;;;;;;;;;;;;19.69;52.24;95113.72;5007371;28;7538;-70
2023/01/02 04:10:17;;;;;;;;;;;;;;;19.69;52.24;95114.50;5007495;28;7554;-69
2023/01/02 04:12:46;;;;;;;;;;;;;;;19.66;52.31;95107.03;5006757;28;7527;-69
2023/01/02 04:15:13;;;;;;;;;;;;;;;19.70;52.21;95109.75;5008684;28;7558;-70
2023/01/02 04:17:52;;;;;;;;;;;;;;;19.68;52.22;95117.69;5010930;28;8021;-70
2023/01/02 04:20:24;;;;;;;;;;;;;;;19.69;52.31;95122.03;5006479;28;7869;-70
2023/01/02 04:23:23;;;;;;;;;;;;;;;19.67;52.42;95116.13;5010275;28;7972;-70
2023/01/02 04:26:11;;;;;;;;;;;;;;;19.66;52.27;95109.03;5027677;28;7557;-70
2023/01/02 04:28:38;;;;;;;;;;;;;;;19.66;52.35;95109.03;5026526;28;7541;-70
2023/01/02 04:31:08;;;;;;;;;;;;;;;19.65;52.43;95111.03;5027682;28;7547;-70
2023/01/02 04:33:46;;;;;;;;;;;;;;;19.66;52.40;95111.81;5028427;28;8002;-69
2023/01/02 04:36:14;;;;;;;;;;;;;;;19.67;52.19;95119.66;5027767;28;8036;-70
2023/01/02 04:38:42;;;;;;;;;;;;;;;19.69;52.11;95122.03;5026583;28;8177;-70
2023/01/02 04:41:09;;;;;;;;;;;;;;;19.68;51.85;95115.69;5029170;28;7542;-70
2023/01/02 04:43:35;;;;;;;;;;;;;;;19.70;52.12;95126.34;5025432;28;7527;-70
2023/01/02 04:46:02;;;;;;;;;;;;;;;19.72;51.88;95126.66;5025953;28;8139;-70
2023/01/02 04:48:29;;;;;;;;;;;;;;;19.70;51.79;95137.41;5026919;28;7641;-70
2023/01/02 04:50:55;;;;;;;;;;;;;;;19.71;51.93;95139.72;5027038;28;7565;-70
2023/01/02 04:53:22;;;;;;;;;;;;;;;19.73;51.71;95144.81;5028270;28;7534;-70
2023/01/02 04:55:54;;;;;;;;;;;;;;;19.71;51.79;95142.50;5026554;28;7550;-70
2023/01/02 04:58:20;;;;;;;;;;;;;;;19.72;51.67;95138.53;5008946;28;7891;-70
2023/01/02 05:00:47;;;;;;;;;;;;;;;19.71;51.88;95134.19;5023838;28;7547;-70
2023/01/02 05:03:14;;;;;;;;;;;;;;;19.69;51.74;95135.84;5004794;28;7559;-70
2023/01/02 05:05:40;;;;;;;;;;;;;;;19.69;51.83;95141.38;5007498;28;7543;-70
2023/01/02 05:08:07;;;;;;;;;;;;;;;19.70;51.82;95134.66;5007475;28;7527;-70
2023/01/02 05:10:41;;;;;;;;;;;;;;;19.70;51.57;95132.66;5005052;28;7851;-69
2023/01/02 05:13:08;;;;;;;;;;;;;;;19.72;51.52;95143.25;5006575;28;7980;-70
2023/01/02 05:15:35;;;;;;;;;;;;;;;19.72;51.57;95133.00;5000715;28;7692;-70
2023/01/02 05:18:01;;;;;;;;;;;;;;;19.74;51.46;95140.84;5007402;28;7571;-69
2023/01/02 05:20:28;;;;;;;;;;;;;;;19.72;51.51;95154.34;5009746;28;7543;-71
2023/01/02 05:25:40;;;;;;;;;;;;;;;19.69;51.41;95153.22;5006406;28;7553;-70
2023/01/02 05:28:06;;;;;;;;;;;;;;;19.71;51.55;95156.34;5009382;28;7546;-69
2023/01/02 05:30:36;;;;;;;;;;;;;;;19.70;51.30;95156.78;5006130;28;7567;-70
2023/01/02 05:33:03;;;;;;;;;;;;;;;19.69;51.10;95160.75;5007162;28;7628;-69
2023/01/02 05:35:29;;;;;;;;;;;;;;;19.71;51.43;95169.38;5008001;28;7551;-70
2023/01/02 05:37:59;;;;;;;;;;;;;;;19.72;51.30;95168.16;5003952;28;7535;-70
2023/01/02 05:40:26;;;;;;;;;;;;;;;19.69;51.28;95180.88;5005128;28;7534;-71
2023/01/02 05:42:52;;;;;;;;;;;;;;;19.68;51.29;95187.59;5003895;28;7542;-71
2023/01/02 05:45:19;;;;;;;;;;;;;;;19.70;51.34;95187.97;5004873;28;7854;-69
2023/01/02 05:47:46;;;;;;;;;;;;;;;19.71;51.30;95195.06;5001769;28;7542;-70
2023/01/02 05:50:12;;;;;;;;;;;;;;;19.69;51.46;95196.69;5015871;28;8060;-70
2023/01/02 05:52:39;;;;;;;;;;;;;;;19.71;51.34;95197.81;5009359;28;7945;-70
2023/01/02 05:55:11;;;;;;;;;;;;;;;19.73;51.38;95205.69;5008106;28;7558;-70
2023/01/02 05:57:40;;;;;;;;;;;;;;;19.71;51.15;95199.78;5005591;28;7539;-71
2023/01/02 06:00:07;;;;;;;;;;;;;;;19.71;51.20;95205.31;5003578;28;7616;-70
2023/01/02 06:02:38;;;;;;;;;;;;;;;19.67;51.54;95194.34;5007907;28;7523;-70
2023/01/02 06:05:06;;;;;;;;;;;;;;;19.69;51.27;95202.22;5004659;28;7558;-70
2023/01/02 06:07:32;;;;;;;;;;;;;;;19.69;51.15;95197.47;5004029;28;7527;-71
2023/01/02 06:09:59;;;;;;;;;;;;;;;19.71;51.32;95199.78;5006231;28;7527;-70
2023/01/02 06:12:26;;;;;;;;;;;;;;;19.71;51.05;95194.25;5005907;28;7652;-70
2023/01/02 06:14:52;;;;;;;;;;;;;;;19.71;51.13;95205.31;5005895;28;8027;-70
2023/01/02 06:17:20;;;;;;;;;;;;;;;19.72;51.07;95202.16;5008774;28;7538;-70
2023/01/02 06:19:47;;;;;;;;;;;;;;;19.73;50.93;95200.16;5004421;28;7543;-71
2023/01/02 06:22:19;;;;;;;;;;;;;;;19.70;51.06;95203.78;5001532;28;7680;-70
2023/01/02 06:24:46;;;;;;;;;;;;;;;19.72;50.91;95204.13;5005081;28;7981;-70
2023/01/02 06:27:12;;;;;;;;;;;;;;;19.73;51.05;95211.22;5005041;28;7725;-70
2023/01/02 06:29:39;;;;;;;;;;;;;;;19.70;50.99;95212.09;5005705;28;7597;-70
2023/01/02 06:32:06;;;;;;;;;;;;;;;19.69;50.93;95230.66;5006049;28;7551;-70
2023/01/02 06:34:32;;;;;;;;;;;;;;;19.71;50.88;95219.16;5005901;28;7535;-70
2023/01/02 06:36:59;;;;;;;;;;;;;;;19.71;50.92;95235.75;5005753;28;7551;-70
2023/01/02 06:39:34;;;;;;;;;;;;;;;19.70;50.88;95237.75;5005124;28;7558;-70
2023/01/02 06:42:01;;;;;;;;;;;;;;;19.72;50.94;95240.88;5000789;28;7538;-70
2023/01/02 06:44:28;;;;;;;;;;;;;;;19.72;50.80;95254.69;5012009;28;7611;-70
2023/01/02 06:46:54;;;;;;;;;;;;;;;19.71;51.15;95247.59;5015628;28;7665;-71
2023/01/02 06:49:21;;;;;;;;;;;;;;;19.71;50.89;95252.34;5003768;28;7538;-70
2023/01/02 06:51:47;;;;;;;;;;;;;;;19.69;50.85;95255.53;5008238;28;7550;-70
2023/01/02 06:54:14;;;;;;;;;;;;;;;19.67;51.01;95259.97;5010530;28;7555;-70
2023/01/02 06:56:41;;;;;;;;;;;;;;;19.66;50.96;95261.16;5008405;28;7558;-70
2023/01/02 06:59:08;;;;;;;;;;;;;;;19.66;51.01;95277.75;5008574;28;7535;-68
2023/01/02 07:01:35;;;;;;;;;;;;;;;19.67;51.07;95271.78;5012141;28;8008;-68
2023/01/02 07:04:02;;;;;;;;;;;;;;;19.68;50.93;95286.41;5005830;28;8153;-67
2023/01/02 07:06:28;;;;;;;;;;;;;;;19.67;51.13;95288.38;5009265;28;7542;-68
2023/01/02 07:08:55;;;;;;;;;;;;;;;19.69;50.98;95290.75;5007841;28;7649;-68
2023/01/02 07:11:23;;;;;;;;;;;;;;;19.69;50.99;95293.50;5008727;28;7557;-67
2023/01/02 07:13:51;;;;;;;;;;;;;;;19.67;51.10;95298.69;5010152;28;7980;-67
2023/01/02 07:16:19;;;;;;;;;;;;;;;19.65;51.07;95299.13;5009221;28;7535;-67
2023/01/02 07:18:46;;;;;;;;;;;;;;;19.68;50.90;95308.53;5007910;28;7535;-67
2023/01/02 07:21:14;;;;;;;;;;;;;;;19.73;50.95;95308.03;5002228;28;7539;-67
2023/01/02 07:23:41;;;;;;;;;;;;;;;19.74;50.71;95309.59;5005614;28;7596;-68
2023/01/02 07:26:08;;;;;;;;;;;;;;;19.76;50.77;95309.94;5008817;28;7560;-67
2023/01/02 07:28:36;;;;;;;;;;;;;;;19.76;50.70;95315.47;5005150;28;7561;-68
2023/01/02 07:31:04;;;;;;;;;;;;;;;19.75;50.66;95313.91;5007789;28;7543;-67
2023/01/02 07:33:31;;;;;;;;;;;;;;;19.75;50.79;95327.75;5015685;28;7562;-68
2023/01/02 07:35:59;;;;;;;;;;;;;;;19.74;50.65;95323.41;5025748;28;7549;-67
2023/01/02 07:38:26;;;;;;;;;;;;;;;19.75;50.75;95336.03;5006623;28;7538;-67
2023/01/02 07:40:53;;;;;;;;;;;;;;;19.75;50.65;95331.28;5008274;28;7547;-67
2023/01/02 07:43:20;;;;;;;;;;;;;;;19.77;50.80;95328.88;5006953;28;7558;-67
2023/01/02 07:45:47;;;;;;;;;;;;;;;19.82;50.60;95335.88;5004460;28;7530;-67
2023/01/02 07:48:16;;;;;;;;;;;;;;;19.82;50.55;95344.19;5008614;28;7530;-68
2023/01/02 07:50:43;;;;;;;;;;;;;;;19.76;50.63;95343.13;5005155;28;7565;-70
2023/01/02 07:53:10;;;;;;;;;;;;;;;19.80;50.83;95346.59;5039322;28;7537;-70
2023/01/02 07:55:37;;;;;;;;;;;;;;;19.81;50.69;95352.94;5004470;28;7559;-68
2023/01/02 07:58:03;;;;;;;;;;;;;;;19.78;50.82;95352.56;5007558;28;7537;-68
2023/01/02 08:00:30;;;;;;;;;;;;;;;19.78;50.90;95357.34;5003651;28;7573;-68
2023/01/02 08:02:57;;;;;;;;;;;;;;;19.80;50.86;95363.19;5003234;28;7531;-68
2023/01/02 08:05:23;;;;;;;;;;;;;;;19.83;50.68;95356.03;5006700;28;7737;-67
2023/01/02 08:07:50;;;;;;;;;;;;;;;19.81;50.66;95370.28;5007667;28;7600;-68
2023/01/02 08:10:17;;;;;;;;;;;;;;;19.84;51.28;95374.19;5004350;28;8600;-73
2023/01/02 08:12:44;;;;;;;;;;;;;;;19.75;51.99;95372.00;5008335;28;7654;-74
2023/01/02 08:15:11;;;;;;;;;;;;;;;19.72;51.86;95372.84;5008848;28;7696;-74
2023/01/02 08:17:38;;;;;;;;;;;;;;;19.82;51.61;95373.84;5003610;28;7923;-74
2023/01/02 08:20:06;;;;;;;;;;;;;;;19.93;51.21;95374.41;5007979;28;7551;-74
2023/01/02 08:22:34;;;;;;;;;;;;;;;19.96;51.06;95370.81;5002294;28;7646;-74
2023/01/02 08:25:01;;;;;;;;;80.25;66.25;;;;;19.98;51.06;95367.59;5015192;28;7560;-74
2023/01/02 08:27:28;;;;;;;;;70.50;60.50;;;;;19.97;50.86;95366.84;5025734;28;11421;-72
2023/01/02 08:29:54;;;;;;;;;70.00;60.00;;;;;19.97;50.83;95372.38;4991483;28;8860;-67
2023/01/02 08:32:21;;;;;;;;;69.75;59.75;;;;;20.02;50.48;95374.63;5000523;28;8894;-71
2023/01/02 08:34:48;;;;;;;;;68.50;57.00;;;;;20.03;50.55;95373.41;4977741;28;8878;-75
2023/01/02 08:37:15;;;;;;;;;70.00;60.00;;;;;20.07;45.64;95376.91;4979900;28;8871;-65
2023/01/02 08:39:42;;;;;;;;;81.25;68.25;;;;;20.16;43.43;95381.84;4975147;28;8870;-68
2023/01/02 08:42:09;;;;;;;;;82.00;68.00;;;;;20.01;43.86;95380.59;4977672;28;10698;-67
2023/01/02 08:44:36;;;;;;;;;79.50;66.25;;;;;19.95;45.55;95393.38;4970520;28;10875;-67
2023/01/02 08:47:04;;;;;;;;;76.75;64.00;;;;;19.93;46.66;95396.56;4979081;28;10684;-67
2023/01/02 08:49:31;;;;;;;;;77.25;64.75;;;;;19.95;47.09;95398.91;4982075;28;10438;-68
2023/01/02 08:51:58;;;;;;;;;70.25;60.25;;;;;19.93;47.69;95402.09;4975080;28;10459;-68
2023/01/02 08:54:25;;;;;;;;;69.25;59.25;;;;;19.92;48.13;95404.09;4977985;28;8919;-68
2023/01/02 08:56:52;;;;;;;;;79.25;65.75;;;;;19.91;48.55;95407.28;4990453;28;9584;-67
2023/01/02 08:59:22;;;;;;;;;76.75;64.00;;;;;19.82;49.50;95416.13;4976367;28;10716;-71
2023/01/02 09:01:50;;;;;;;;;67.50;57.25;;;;;19.92;50.13;95422.66;4981539;28;10714;-71
2023/01/02 09:04:18;;;;;;;;;70.25;60.25;;;;;19.95;50.16;95415.50;4992186;28;8851;-72
2023/01/02 09:06:46;;;;;;;;;80.00;67.00;;;;;19.98;50.49;95414.66;4976866;28;8889;-71
2023/01/02 09:09:14;;;;;;;;;69.00;58.50;;;;;19.98;50.31;95409.91;4980293;28;10490;-71
2023/01/02 09:11:51;;;;;;;;;70.25;60.25;;;;;20.00;50.51;95406.69;4973795;28;8863;-71
2023/01/02 09:14:20;;;;;;;;;79.00;66.00;;;;;20.00;50.61;95410.25;4975728;28;8867;-73
2023/01/02 09:16:49;;;;;;;;;69.25;59.25;;;;;20.00;50.91;95413.03;4979955;28;10892;-73
2023/01/02 09:19:16;;;;;;;;;80.25;68.00;;;;;19.98;50.99;95415.44;4979600;28;8871;-73
2023/01/02 09:21:44;;;;;;;;;81.00;68.00;;;;;20.00;51.61;95417.78;4982510;28;10857;-72
2023/01/02 09:24:11;;;;;;;;;81.25;68.00;;;;;20.05;49.55;95420.03;4973945;28;10463;-73
2023/01/02 09:26:40;;;;;;;;;77.00;65.00;;;;;20.04;50.82;95418.50;4976616;28;10543;-73
2023/01/02 09:29:11;;;;;;;;;69.00;58.25;;;;;20.03;50.55;95425.22;4975720;28;10678;-73
2023/01/02 09:31:38;;;;;;;;;69.00;59.00;;;;;20.04;51.22;95418.50;4975261;28;8843;-75
2023/01/02 09:34:06;;;;;;;;;68.25;58.25;;;;;20.05;51.02;95415.28;4976939;28;8868;-74
2023/01/02 09:36:32;;;;;;;;;70.00;60.00;;;;;20.04;51.45;95419.25;4975454;28;8878;-73
2023/01/02 09:39:00;;;;;;;;;80.25;65.75;;;;;20.07;51.46;95423.94;4974277;28;8852;-72
2023/01/02 09:41:33;;;;;;;;;69.25;59.25;;;;;20.06;51.73;95421.59;4972649;28;10689;-74
2023/01/02 09:44:05;;;;;;;;;76.25;64.25;;;;;20.09;51.46;95431.81;4973587;28;8858;-72
2023/01/02 09:46:40;;;;;;;;;68.50;58.25;;;;;20.08;51.84;95427.50;4979291;28;10373;-72
2023/01/02 09:49:14;;;;;;;;;69.00;59.00;;;;;19.99;52.23;95428.06;4976746;28;9557;-72
2023/01/02 09:51:42;;;;;;;;;74.25;62.25;;;;;20.05;52.03;95437.44;4996037;28;8828;-72
2023/01/02 09:54:13;;;;;;;;;70.00;59.25;;;;;;;;4978977;28;9867;-75
2023/01/02 09:56:46;;;;;;;;;79.50;66.50;;;;;20.08;51.80;95442.13;4977217;28;9260;-73
2023/01/02 09:59:24;;;;;;;;;68.75;59.00;;;;;20.09;51.89;95440.13;4978194;28;10930;-73
2023/01/02 10:02:19;;;;;;;;;68.50;57.75;;;;;20.07;51.82;95448.88;4980780;28;8851;-72
2023/01/02 10:05:05;;;;;;;;;69.00;59.00;;;;;20.07;51.77;95448.06;4972138;28;8855;-70
2023/01/02 10:07:38;;;;;;;;;79.00;66.00;;;;;20.08;51.91;95447.66;4990824;28;8875;-70
2023/01/02 10:10:38;;;;;;;;;78.00;65.00;;;;;20.10;51.45;95458.28;5000831;28;10506;-70
2023/01/02 10:13:22;;;;;;;;;78.75;65.25;;;;;20.09;51.21;95451.19;4989687;28;10563;-70
2023/01/02 10:16:18;;;;;;;;;68.25;58.50;;;;;20.07;51.13;95456.38;4974925;28;10483;-69
2023/01/02 10:18:52;;;;;;;;;68.00;58.00;;;;;20.06;50.93;95466.66;4979741;28;8911;-72
2023/01/02 10:21:32;;;;;;;;;68.50;58.50;;;;;20.05;51.16;95459.56;4974884;28;8843;-69
2023/01/02 10:24:05;;;;;;;;;64.25;56.00;;;;;20.06;51.58;95468.63;4974598;28;8878;-69
2023/01/02 10:26:40;;;;;;;;;78.25;65.25;;;;;20.08;51.63;95455.97;5055721;28;9432;-71
2023/01/02 10:29:24;;;;;;;;;78.50;65.25;;;;;20.11;51.51;95462.63;4981461;28;10181;-70
2023/01/02 10:31:58;;;;;;;;;78.25;65.25;;;;;20.11;51.16;95461.81;4982043;28;10913;-70
2023/01/02 10:34:41;;;;;;;;;75.00;63.00;;;;;20.14;51.20;95460.97;4977527;28;10501;-71
2023/01/02 10:37:13;;;;;;;;;65.25;57.00;;;;;20.14;50.88;95449.91;4978381;28;10513;-70
2023/01/02 10:39:44;;;;;;;;;78.00;65.00;;;;;20.16;50.79;95453.03;4985504;28;8837;-71
2023/01/02 10:42:13;;;;;;;;;69.25;59.25;;;;;20.01;50.23;95458.09;4998141;28;10152;-71
2023/01/02 10:44:43;;;;;;;;;77.25;64.25;;;;;19.98;52.96;95458.91;4981226;28;8867;-70
2023/01/02 10:47:34;;;;;;;;;176.50;138.50;;;;;20.04;55.48;95460.78;4974156;28;10277;-74
2023/01/02 10:50:06;;;;;;;;;151.75;118.00;;;;;20.14;57.03;95463.75;4989158;28;11675;-76
2023/01/02 10:52:40;;;;;;;;;92.25;71.25;;;;;20.20;57.71;95451.75;4979024;28;10577;-75
2023/01/02 10:55:07;;;;;;;;;84.75;67.25;;;;;20.25;57.30;95461.56;4980669;28;8878;-84
2023/01/02 10:57:49;;;;;;;;;86.00;70.00;;;;;20.26;56.96;95454.78;4975399;28;9659;-68
2023/01/02 11:00:16;;;;;;;;;74.50;61.25;;;;;20.27;58.49;95455.56;4974178;28;10747;-70
2023/01/02 11:02:55;;;;;;;;;84.75;69.25;;;;;20.30;57.33;95452.72;4984833;28;8852;-69
2023/01/02 11:05:29;;;;;;;;;75.00;61.25;;;;;20.31;56.55;95459.84;4980202;28;12087;-70
2023/01/02 11:07:57;;;;;;;;;70.75;60.75;;;;;20.26;48.31;95456.78;4976077;28;8966;-69
2023/01/02 11:10:32;;;;;;;;;83.00;68.00;;;;;20.18;44.72;95456.13;4984080;28;8890;-72
2023/01/02 11:13:09;;;;;;;;;80.25;67.00;;;;;20.02;44.37;95452.13;4979532;28;10577;-69
2023/01/02 11:15:46;;;;;;;;;81.00;68.00;;;;;19.85;44.28;95440.22;4976102;28;10639;-67
2023/01/02 11:18:21;;;;;;;;;81.75;68.00;;;;;19.80;45.58;95446.19;4976036;28;10519;-67
2023/01/02 11:20:52;;;;;;;;;81.50;67.25;;;;;19.84;47.60;95440.59;4975175;28;10864;-68
2023/01/02 11:23:23;;;;;;;;;71.00;60.50;;;;;19.88;48.10;95438.56;4974519;28;10682;-67
2023/01/02 11:25:53;;;;;;;;;70.50;60.25;;;;;19.90;48.60;95433.41;4972406;28;8946;-69
2023/01/02 11:28:27;;;;;;;;;72.00;62.00;;;;;19.92;49.61;95434.53;4975038;28;8851;-70
2023/01/02 11:31:03;;;;;;;;;84.00;68.00;;;;;19.95;49.91;95432.13;4977930;28;8845;-69
2023/01/02 11:33:33;;;;;;;;;71.50;61.25;;;;;19.96;50.44;95430.91;4974366;28;10879;-67
2023/01/02 11:36:02;;;;;;;;;76.50;61.25;;;;;20.00;48.36;95423.31;4976810;28;8852;-67
2023/01/02 11:38:48;;;;;;;;;80.00;66.25;;;;;19.94;49.39;95431.31;4977978;28;8978;-67
2023/01/02 11:44:25;;;;;;;;;83.00;69.00;;;;;19.96;53.54;95426.16;4975154;28;8855;-69
2023/01/02 11:46:53;;;;;;;;;75.25;63.00;;;;;20.01;49.78;95411.03;4969034;28;11549;-69
2023/01/02 11:49:37;;;;;;;;;73.75;60.75;;;;;20.02;45.77;95416.13;4975514;28;8844;-70
2023/01/02 11:52:05;;;;;;;;;77.50;64.25;;;;;20.00;46.46;95410.25;4977019;28;8862;-70
2023/01/02 11:54:58;;;;;;;;;67.00;57.25;;;;;19.97;49.36;95404.78;4976966;28;10287;-70
2023/01/02 11:57:55;;;;;;;;;107.50;84.75;;;;;19.91;50.82;95401.75;4972216;28;8940;-74
2023/01/02 12:00:29;;;;;;;;;75.00;62.00;;;;;19.99;48.86;95403.16;4973318;28;11565;-71
2023/01/02 12:03:03;;;;;;;;;78.00;64.25;;;;;20.12;43.81;95405.28;4976868;28;9039;-67
2023/01/02 12:05:55;;;;;;;;;84.50;68.25;;;;;20.00;44.13;95401.16;4972166;28;10451;-69
2023/01/02 12:08:47;;;;;;;;;79.75;65.75;;;;;19.79;48.77;95408.66;4973269;28;11655;-73
2023/01/02 12:11:32;;;;;;;;;71.75;61.50;;;;;19.87;49.45;95399.06;4973969;28;10864;-73
2023/01/02 12:14:18;;;;;;;;;76.75;63.00;;;;;19.91;49.49;95397.00;5059777;28;8962;-72
2023/01/02 12:16:54;;;;;;;;;69.75;59.75;;;;;19.89;49.79;95395.88;4978850;28;10293;-72
2023/01/02 12:19:30;;;;;;;;;72.25;61.00;;;;;19.92;51.02;95393.03;4979964;28;8956;-63
2023/01/02 12:22:03;;;;;;;;;69.75;59.75;;;;;20.00;50.83;95382.59;4976091;28;8883;-62
2023/01/02 12:24:35;;;;;;;;;71.00;60.25;;;;;20.05;50.79;95378.50;4977102;28;8852;-63
2023/01/02 12:27:20;;;;;;;;;80.50;66.50;;;;;20.07;50.93;95376.09;4978076;28;8870;-63
2023/01/02 12:30:08;;;;;;;;;77.50;64.50;;;;;20.07;50.86;95365.84;4981764;28;10684;-63
2023/01/02 12:33:01;;;;;;;;;78.75;65.50;;;;;20.08;51.20;95374.91;4967819;28;10734;-63
2023/01/02 12:35:46;;;;;;;;;72.50;60.25;;;;;20.07;50.46;95368.59;4971125;28;10450;-62
2023/01/02 12:38:44;;;;;;;;;69.50;59.50;;;;;20.07;50.55;95371.38;4972433;28;8869;-62
2023/01/02 12:41:28;;;;;;;;;76.00;63.25;;;;;20.08;50.82;95367.41;4972633;28;10288;-63
2023/01/02 12:44:31;;;;;;;;;80.25;68.00;;;;;20.05;52.41;95370.22;4976501;28;10684;-70
2023/01/02 12:47:11;;;;;;;;;72.25;61.00;;;;;20.11;52.28;95374.06;4976448;28;10757;-70
2023/01/02 12:49:50;;;;;;;;;69.25;58.00;;;;;20.13;52.48;95366.06;4973177;28;8852;-70